sim
Sign-in with your pilot id or email,
or register
Callsign
Passwort

Schedule Details

Flight Number: EWG1973 (2)
Departure: Hamburg Airport (EDDH) at 07:10
Arrival: Munich Airport (EDDM) at 08:30
Route: Eurowings Passenger Schedule. Enter filed route here before submitting Pirep.

Weather Information
Getting current METAR information for EDDH 282150Z 13003KT 090V150 9999 1800NW R15/0650D BCFG NSC 10/09 Q1013 NOSIG
Getting current METAR information for EDDM 282150Z VRB02KT CAVOK 08/07 Q1016 NOSIG

Schedule Frequency

Route Map